Terminal Aerodrome Forecast
Issued by NWS Rapid City, SD

Home | Current Version | Previous Version | Text Only | Print | Product List | Glossary Off
Versions: 1 2 3 4 5 6 7 8 9 10 11 12 13 14 15 16 17 18 19 20 21 22 23 24 25 26 27 28 29 30 31 32 33 34

000
FTUS43 KUNR 290000 AAA
TAFRAP
TAF AMD
KRAP 290058Z 2901/2924 36011KT 3SM BR SCT003 OVC005
     FM290400 03011KT 3SM -SHRA BR OVC003
     FM291800 08010KT 6SM BR OVC008=

USA.gov is the U.S. government's official web portal to all federal, state and local government web resources and services.